createdAt,value
2024-05-09T00:01:38.808Z,15.05
2024-05-09T00:04:10.009Z,15.08
2024-05-09T00:06:39.936Z,15.09
2024-05-09T00:09:12.935Z,15.24
2024-05-09T00:11:45.782Z,15.30
2024-05-09T00:14:15.873Z,15.37
2024-05-09T00:16:45.918Z,15.38
2024-05-09T00:19:17.573Z,15.45
2024-05-09T00:21:47.539Z,15.46
2024-05-09T00:24:22.660Z,15.49
2024-05-09T00:26:52.428Z,15.48
2024-05-09T00:29:22.331Z,15.31
2024-05-09T00:31:52.830Z,15.35
2024-05-09T00:34:23.260Z,15.32
2024-05-09T00:36:54.152Z,15.37
2024-05-09T00:39:28.815Z,15.34
2024-05-09T00:41:59.756Z,15.35
2024-05-09T00:44:29.813Z,15.33
2024-05-09T00:46:59.843Z,15.23
2024-05-09T00:49:32.349Z,15.03
2024-05-09T00:52:03.422Z,14.97
2024-05-09T00:54:36.424Z,15.00
2024-05-09T00:57:07.422Z,15.05
2024-05-09T00:59:37.670Z,15.10
2024-05-09T01:02:09.664Z,14.76
2024-05-09T01:04:39.864Z,14.60
2024-05-09T01:07:11.371Z,14.31
2024-05-09T01:09:43.974Z,14.29
2024-05-09T01:12:14.068Z,14.23
2024-05-09T01:14:44.059Z,14.27
2024-05-09T01:17:14.316Z,14.37
2024-05-09T01:19:44.430Z,14.37
2024-05-09T01:22:14.399Z,14.34
2024-05-09T01:24:48.623Z,14.32
2024-05-09T01:27:20.675Z,14.20
2024-05-09T01:29:50.431Z,14.18
2024-05-09T01:32:20.292Z,14.14
2024-05-09T01:34:50.112Z,14.09
2024-05-09T01:37:19.910Z,14.12
2024-05-09T01:39:52.385Z,14.05
2024-05-09T01:42:22.178Z,14.01
2024-05-09T01:44:51.986Z,13.89
2024-05-09T01:47:22.049Z,13.89
2024-05-09T01:49:52.003Z,13.92
2024-05-09T01:52:21.899Z,14.05
2024-05-09T01:54:54.448Z,14.12
2024-05-09T01:57:24.271Z,14.25
2024-05-09T01:59:54.256Z,14.24
2024-05-09T02:02:24.125Z,14.20
2024-05-09T02:04:54.135Z,14.32
2024-05-09T02:07:23.989Z,14.25
2024-05-09T02:09:57.550Z,14.15
2024-05-09T02:12:27.434Z,14.19
2024-05-09T02:14:57.289Z,14.32
2024-05-09T02:17:27.599Z,14.32
2024-05-09T02:19:57.550Z,14.21
2024-05-09T02:22:27.438Z,14.12
2024-05-09T02:24:59.861Z,14.07
2024-05-09T02:27:29.683Z,14.22
2024-05-09T02:29:59.475Z,14.22
2024-05-09T02:32:29.407Z,14.14
2024-05-09T02:34:59.348Z,14.02
2024-05-09T02:37:26.549Z,13.98
2024-05-09T02:39:59.097Z,14.19
2024-05-09T02:42:26.205Z,14.28
2024-05-09T02:44:56.115Z,14.28
2024-05-09T02:47:23.467Z,14.20
2024-05-09T02:49:53.452Z,14.31
2024-05-09T02:52:20.682Z,14.26
2024-05-09T02:54:50.428Z,14.31
2024-05-09T02:57:20.279Z,14.40
2024-05-09T02:59:50.865Z,14.37
2024-05-09T03:02:18.156Z,14.30
2024-05-09T03:04:48.108Z,14.22
2024-05-09T03:07:15.266Z,14.17
2024-05-09T03:09:49.059Z,14.24
2024-05-09T03:12:16.301Z,14.21
2024-05-09T03:14:48.746Z,14.15
2024-05-09T03:17:16.004Z,14.09
2024-05-09T03:20:06.961Z,14.08
2024-05-09T03:22:36.196Z,13.93
2024-05-09T03:25:06.055Z,13.85
2024-05-09T03:27:33.280Z,13.85
2024-05-09T03:30:07.518Z,13.92
2024-05-09T03:32:34.896Z,13.91
2024-05-09T03:35:04.823Z,13.88
2024-05-09T03:37:34.699Z,13.88
2024-05-09T03:40:09.181Z,13.95
2024-05-09T03:42:41.994Z,13.94
2024-05-09T03:45:14.479Z,13.91
2024-05-09T03:47:42.334Z,13.84
2024-05-09T03:50:18.494Z,13.89
2024-05-09T03:52:53.189Z,13.80
2024-05-09T03:55:23.057Z,13.81
2024-05-09T03:57:50.265Z,13.83
2024-05-09T04:00:31.067Z,13.81
2024-05-09T04:03:06.679Z,13.86
2024-05-09T04:05:40.001Z,13.94
2024-05-09T04:08:10.103Z,13.94
2024-05-09T04:10:40.372Z,13.86
2024-05-09T04:13:07.915Z,13.89
2024-05-09T04:15:40.572Z,13.89
2024-05-09T04:18:07.992Z,13.82
2024-05-09T04:20:40.428Z,13.84
2024-05-09T04:23:12.602Z,13.84
2024-05-09T04:25:45.795Z,13.73
2024-05-09T04:28:13.468Z,13.78
2024-05-09T04:30:46.785Z,13.78
2024-05-09T04:33:15.766Z,13.80
2024-05-09T04:35:46.105Z,13.81
2024-05-09T04:38:14.566Z,13.84
2024-05-09T04:40:45.242Z,13.91
2024-05-09T04:43:15.826Z,13.90
2024-05-09T04:45:48.501Z,13.87
2024-05-09T04:48:16.833Z,13.96
2024-05-09T04:50:47.551Z,13.93
2024-05-09T04:53:16.678Z,14.06
2024-05-09T04:55:46.792Z,14.08
2024-05-09T04:58:14.265Z,14.08
2024-05-09T05:00:44.169Z,14.11
2024-05-09T05:03:15.855Z,14.18
2024-05-09T05:05:47.181Z,14.19
2024-05-09T05:08:15.383Z,14.17
2024-05-09T05:10:46.630Z,14.24
2024-05-09T05:13:20.748Z,14.32
2024-05-09T05:15:53.611Z,14.29
2024-05-09T05:18:24.249Z,14.33
2024-05-09T05:20:54.606Z,14.31
2024-05-09T05:23:25.541Z,14.37
2024-05-09T05:25:56.034Z,14.40
2024-05-09T05:28:23.580Z,14.26
2024-05-09T05:30:53.516Z,14.25
2024-05-09T05:33:26.292Z,14.41
2024-05-09T05:35:55.901Z,14.42
2024-05-09T05:38:28.201Z,14.47
2024-05-09T05:40:56.351Z,14.42
2024-05-09T05:43:26.233Z,14.54
2024-05-09T05:45:54.964Z,14.61
2024-05-09T05:48:27.687Z,14.66
2024-05-09T05:50:54.962Z,14.73
2024-05-09T05:53:24.737Z,14.66
2024-05-09T05:55:52.044Z,14.77
2024-05-09T05:58:22.616Z,14.63
2024-05-09T06:00:53.312Z,14.64
2024-05-09T06:03:23.290Z,14.60
2024-05-09T06:05:53.255Z,14.66
2024-05-09T06:08:23.758Z,14.56
2024-05-09T06:10:52.033Z,14.59
2024-05-09T06:13:21.975Z,14.50
2024-05-09T06:15:51.573Z,14.60
2024-05-09T06:18:21.901Z,14.53
2024-05-09T06:20:49.328Z,14.65
2024-05-09T06:23:22.120Z,14.65
2024-05-09T06:25:51.077Z,14.65
2024-05-09T06:28:20.897Z,14.66
2024-05-09T06:30:48.044Z,14.79
2024-05-09T06:33:18.123Z,14.87
2024-05-09T06:35:46.449Z,14.70
2024-05-09T06:38:16.457Z,14.66
2024-05-09T06:40:46.411Z,14.62
2024-05-09T06:43:18.699Z,14.63
2024-05-09T06:45:47.885Z,14.55
2024-05-09T06:48:20.647Z,14.72
2024-05-09T06:50:48.513Z,14.79
2024-05-09T06:53:19.647Z,14.83
2024-05-09T06:55:49.927Z,15.01
2024-05-09T06:58:19.975Z,15.21
2024-05-09T07:00:47.245Z,15.29
2024-05-09T07:03:19.182Z,15.42
2024-05-09T07:05:48.661Z,15.38
2024-05-09T07:08:19.684Z,15.30
2024-05-09T07:10:50.214Z,15.26
2024-05-09T07:13:20.261Z,15.17
2024-05-09T07:15:47.409Z,15.24
2024-05-09T07:18:20.257Z,15.17
2024-05-09T07:20:50.740Z,15.02
2024-05-09T07:23:21.262Z,14.66
2024-05-09T07:25:51.182Z,14.72
2024-05-09T07:28:22.608Z,14.87
2024-05-09T07:30:49.736Z,14.87
2024-05-09T07:33:22.098Z,14.97
2024-05-09T07:35:50.818Z,14.95
2024-05-09T07:38:20.867Z,14.87
2024-05-09T07:40:53.462Z,14.83
2024-05-09T07:43:20.686Z,14.68
2024-05-09T07:45:54.096Z,14.68
2024-05-09T07:52:45.965Z,14.77
2024-05-09T07:53:48.837Z,15.01
2024-05-09T07:56:25.440Z,14.75
2024-05-09T07:58:53.836Z,14.89
2024-05-09T08:01:25.796Z,14.89
2024-05-09T08:03:53.933Z,14.63
2024-05-09T08:06:23.837Z,14.82
2024-05-09T08:08:51.050Z,14.91
2024-05-09T08:11:20.920Z,15.04
2024-05-09T08:13:50.878Z,14.90
2024-05-09T08:16:20.809Z,14.64
2024-05-09T08:18:48.161Z,14.98
2024-05-09T08:21:19.405Z,15.00
2024-05-09T08:23:46.590Z,15.07
2024-05-09T08:26:16.361Z,15.09
2024-05-09T08:28:43.488Z,15.21
2024-05-09T08:31:16.179Z,15.24
2024-05-09T08:33:47.795Z,15.25
2024-05-09T08:36:17.945Z,15.06
2024-05-09T08:38:45.127Z,15.14
2024-05-09T08:41:17.319Z,15.11
2024-05-09T08:43:44.928Z,15.09
2024-05-09T08:46:19.186Z,14.92
2024-05-09T08:48:49.937Z,14.50
2024-05-09T08:51:20.032Z,14.33
2024-05-09T08:53:47.313Z,14.37
2024-05-09T08:56:19.140Z,14.44
2024-05-09T08:58:48.218Z,14.32
2024-05-09T09:01:21.854Z,14.32
2024-05-09T09:03:51.746Z,14.35
2024-05-09T09:06:24.634Z,14.39
2024-05-09T09:08:53.397Z,14.45
2024-05-09T09:11:23.241Z,14.28
2024-05-09T09:13:50.475Z,14.38
2024-05-09T09:16:23.363Z,14.58
2024-05-09T09:18:53.568Z,14.84
2024-05-09T09:21:23.387Z,15.07
2024-05-09T09:23:50.537Z,15.18
2024-05-09T09:26:20.893Z,15.04
2024-05-09T09:28:48.084Z,15.29
2024-05-09T09:31:22.678Z,15.55
2024-05-09T09:33:50.152Z,15.81
2024-05-09T09:36:19.992Z,16.05
2024-05-09T09:38:48.127Z,16.27
2024-05-09T09:41:20.931Z,16.29
2024-05-09T09:43:48.593Z,15.94
2024-05-09T09:46:21.318Z,15.67
2024-05-09T09:48:52.042Z,15.59
2024-05-09T09:51:22.831Z,15.93
2024-05-09T09:53:52.817Z,16.00
2024-05-09T09:56:24.086Z,16.11
2024-05-09T09:58:53.293Z,16.10
2024-05-09T10:01:23.204Z,16.10
2024-05-09T10:03:54.008Z,16.38
2024-05-09T10:06:25.840Z,16.22
2024-05-09T10:08:54.329Z,16.15
2024-05-09T10:11:39.466Z,15.94
2024-05-09T10:14:09.254Z,16.17
2024-05-09T10:16:45.728Z,16.35
2024-05-09T10:19:26.429Z,16.49
2024-05-09T10:22:04.646Z,16.54
2024-05-09T10:24:47.467Z,16.53
2024-05-09T10:27:17.413Z,16.58
2024-05-09T10:29:54.174Z,16.64
2024-05-09T10:32:24.125Z,16.63
2024-05-09T10:35:07.663Z,16.61
2024-05-09T10:37:38.295Z,16.58
2024-05-09T10:40:13.972Z,16.49
2024-05-09T10:42:47.728Z,16.61
2024-05-09T10:45:16.599Z,16.91
2024-05-09T10:47:46.657Z,16.87
2024-05-09T10:50:22.653Z,16.74
2024-05-09T10:52:58.539Z,16.80
2024-05-09T10:55:25.985Z,16.66
2024-05-09T10:57:55.866Z,16.53
2024-05-09T11:00:29.969Z,16.57
2024-05-09T11:03:03.819Z,16.69
2024-05-09T11:05:34.919Z,16.89
2024-05-09T11:08:05.282Z,17.06
2024-05-09T11:10:34.376Z,17.23
2024-05-09T11:13:04.638Z,17.19
2024-05-09T11:15:38.729Z,16.81
2024-05-09T11:18:09.104Z,16.86
2024-05-09T11:20:39.157Z,16.96
2024-05-09T11:23:09.538Z,17.63
2024-05-09T11:25:36.832Z,17.90
2024-05-09T11:28:07.464Z,17.82
2024-05-09T11:30:35.560Z,17.44
2024-05-09T11:33:05.869Z,17.14
2024-05-09T11:35:33.233Z,16.53
2024-05-09T11:38:06.092Z,16.31
2024-05-09T11:40:34.647Z,16.58
2024-05-09T11:43:04.739Z,16.39
2024-05-09T11:45:32.270Z,16.18
2024-05-09T11:48:02.692Z,15.92
2024-05-09T11:50:35.606Z,15.90
2024-05-09T11:53:09.535Z,15.86
2024-05-09T11:55:36.921Z,16.05
2024-05-09T11:58:08.440Z,16.27
2024-05-09T12:00:37.572Z,16.08
2024-05-09T12:03:08.633Z,16.24
2024-05-09T12:05:35.921Z,16.69
2024-05-09T12:08:09.629Z,16.57
2024-05-09T12:10:37.514Z,16.67
2024-05-09T12:13:08.133Z,16.43
2024-05-09T12:15:37.438Z,16.42
2024-05-09T12:18:09.165Z,16.44
2024-05-09T12:20:39.172Z,16.21
2024-05-09T12:23:12.749Z,16.36
2024-05-09T12:25:40.364Z,16.41
2024-05-09T12:28:10.779Z,16.63
2024-05-09T12:30:40.337Z,16.57
2024-05-09T12:33:12.907Z,16.78
2024-05-09T12:35:41.780Z,17.13
2024-05-09T12:38:15.780Z,17.11
2024-05-09T12:40:43.482Z,16.95
2024-05-09T12:43:13.531Z,16.47
2024-05-09T12:45:40.928Z,16.20
2024-05-09T12:48:12.265Z,16.29
2024-05-09T12:50:40.408Z,16.38
2024-05-09T12:53:10.506Z,16.31
2024-05-09T12:55:48.258Z,16.37
2024-05-09T12:58:24.753Z,16.58
2024-05-09T13:00:52.624Z,16.77
2024-05-09T13:03:22.912Z,16.58
2024-05-09T13:05:50.653Z,16.57
2024-05-09T13:08:21.006Z,16.53
2024-05-09T13:10:51.423Z,16.54
2024-05-09T13:13:21.389Z,16.56
2024-05-09T13:15:48.720Z,16.23
2024-05-09T13:18:18.787Z,16.16
2024-05-09T13:20:45.998Z,15.95
2024-05-09T13:23:15.822Z,15.91
2024-05-09T13:25:43.209Z,15.82
2024-05-09T13:28:15.748Z,16.12
2024-05-09T13:30:43.413Z,16.56
2024-05-09T13:33:14.442Z,16.66
2024-05-09T13:35:46.785Z,16.56
2024-05-09T13:38:20.043Z,16.77
2024-05-09T13:40:50.621Z,16.83
2024-05-09T13:43:24.126Z,16.66
2024-05-09T13:45:55.360Z,16.68
2024-05-09T13:48:25.619Z,16.72
2024-05-09T13:50:52.918Z,16.92
2024-05-09T13:53:22.797Z,17.17
2024-05-09T13:55:50.354Z,17.16
2024-05-09T13:58:20.661Z,17.23
2024-05-09T14:00:50.901Z,17.25
2024-05-09T14:03:22.098Z,17.31
2024-05-09T14:05:51.296Z,17.32
2024-05-09T14:08:22.837Z,17.22
2024-05-09T14:10:50.909Z,16.83
2024-05-09T14:13:20.963Z,16.86
2024-05-09T14:15:51.363Z,17.19
2024-05-09T14:18:21.448Z,16.98
2024-05-09T14:20:49.790Z,17.11
2024-05-09T14:23:20.969Z,17.31
2024-05-09T14:25:52.185Z,17.49
2024-05-09T14:28:23.061Z,17.65
2024-05-09T14:30:53.489Z,17.60
2024-05-09T14:33:26.833Z,17.29
2024-05-09T14:35:54.592Z,17.39
2024-05-09T14:38:32.124Z,17.07
2024-05-09T14:40:59.661Z,17.33
2024-05-09T14:43:29.774Z,17.38
2024-05-09T14:45:59.668Z,17.28
2024-05-09T14:48:30.139Z,17.32
2024-05-09T14:50:57.439Z,16.98
2024-05-09T14:53:28.399Z,17.11
2024-05-09T14:55:55.891Z,17.11
2024-05-09T14:58:26.622Z,17.16
2024-05-09T15:00:53.877Z,16.43
2024-05-09T15:03:26.507Z,16.21
2024-05-09T15:05:53.970Z,16.09
2024-05-09T15:08:24.001Z,16.27
2024-05-09T15:10:51.312Z,16.32
2024-05-09T15:13:21.618Z,16.56
2024-05-09T15:15:49.230Z,16.69
2024-05-09T15:18:19.483Z,16.71
2024-05-09T15:20:49.510Z,16.76
2024-05-09T15:23:19.751Z,16.28
2024-05-09T15:25:47.423Z,15.91
2024-05-09T15:28:17.680Z,15.71
2024-05-09T15:30:46.595Z,15.91
2024-05-09T15:33:17.729Z,15.69
2024-05-09T15:35:47.054Z,15.58
2024-05-09T15:38:20.209Z,15.31
2024-05-09T15:40:48.286Z,15.27
2024-05-09T15:43:18.486Z,15.20
2024-05-09T15:45:45.811Z,14.96
2024-05-09T15:48:15.993Z,14.93
2024-05-09T15:50:45.577Z,14.87
2024-05-09T15:53:15.709Z,14.82
2024-05-09T15:55:45.634Z,14.79
2024-05-09T15:58:16.190Z,14.72
2024-05-09T16:00:48.682Z,14.78
2024-05-09T16:03:21.409Z,14.73
2024-05-09T16:05:51.427Z,14.67
2024-05-09T16:08:21.383Z,14.76
2024-05-09T16:10:51.460Z,14.75
2024-05-09T16:13:22.105Z,14.71
2024-05-09T16:15:49.417Z,14.72
2024-05-09T16:18:19.745Z,14.70
2024-05-09T16:20:49.490Z,14.62
2024-05-09T16:23:21.762Z,14.64
2024-05-09T16:25:52.125Z,14.60
2024-05-09T16:28:23.892Z,14.64
2024-05-09T16:30:55.275Z,14.59
2024-05-09T16:33:26.731Z,14.46
2024-05-09T16:35:53.980Z,14.38
2024-05-09T16:38:23.846Z,14.35
2024-05-09T16:40:55.937Z,14.41
2024-05-09T16:43:26.073Z,14.39
2024-05-09T16:45:53.516Z,14.32
2024-05-09T16:48:25.612Z,14.56
2024-05-09T16:50:52.929Z,14.72
2024-05-09T16:53:23.412Z,14.66
2024-05-09T16:55:50.590Z,14.53
2024-05-09T16:58:23.346Z,14.45
2024-05-09T17:00:51.058Z,14.44
2024-05-09T17:03:21.605Z,14.32
2024-05-09T17:05:50.582Z,14.33
2024-05-09T17:08:20.694Z,14.25
2024-05-09T17:10:49.456Z,14.26
2024-05-09T17:13:23.015Z,14.15
2024-05-09T17:15:53.129Z,14.15
2024-05-09T17:18:23.237Z,14.03
2024-05-09T17:20:53.520Z,14.03
2024-05-09T17:23:20.683Z,14.04
2024-05-09T17:25:50.471Z,14.02
2024-05-09T17:28:20.656Z,13.95
2024-05-09T17:30:51.423Z,13.89
2024-05-09T17:33:18.945Z,13.89
2024-05-09T17:35:50.780Z,13.92
2024-05-09T17:38:20.412Z,13.96
2024-05-09T17:40:51.558Z,13.90
2024-05-09T17:43:21.767Z,14.00
2024-05-09T17:45:51.796Z,14.00
2024-05-09T17:48:19.506Z,13.94
2024-05-09T17:50:51.880Z,13.88
2024-05-09T17:53:20.321Z,13.91
2024-05-09T17:55:54.062Z,13.95
2024-05-09T17:58:24.093Z,14.07
2024-05-09T18:00:54.278Z,14.07
2024-05-09T18:03:23.394Z,13.98
2024-05-09T18:05:53.920Z,13.97
2024-05-09T18:08:21.282Z,13.99
2024-05-09T18:10:52.720Z,13.97
2024-05-09T18:13:24.149Z,13.81
2024-05-09T18:15:54.256Z,13.84
2024-05-09T18:18:21.631Z,13.93
2024-05-09T18:20:53.037Z,13.92
2024-05-09T18:23:20.235Z,13.91
2024-05-09T18:25:54.713Z,13.73
2024-05-09T18:28:25.056Z,13.52
2024-05-09T18:30:55.180Z,13.57
2024-05-09T18:33:23.559Z,13.47
2024-05-09T18:35:53.442Z,13.49
2024-05-09T18:38:26.891Z,13.43
2024-05-09T18:40:54.447Z,13.41
2024-05-09T18:43:28.950Z,13.43
2024-05-09T18:46:06.181Z,13.35
2024-05-09T18:48:36.668Z,13.23
2024-05-09T18:51:05.654Z,13.20
2024-05-09T18:53:35.493Z,13.20
2024-05-09T18:56:02.724Z,13.16
2024-05-09T18:58:32.519Z,13.10
2024-05-09T19:01:01.736Z,13.22
2024-05-09T19:03:35.528Z,13.15
2024-05-09T19:06:03.516Z,13.16
2024-05-09T19:08:33.731Z,13.19
2024-05-09T19:11:02.058Z,13.18
2024-05-09T19:13:32.108Z,13.14
2024-05-09T19:15:59.496Z,13.19
2024-05-09T19:18:30.913Z,13.10
2024-05-09T19:21:00.875Z,13.19
2024-05-09T19:23:35.177Z,13.14
2024-05-09T19:26:05.431Z,13.18
2024-05-09T19:28:35.271Z,13.10
2024-05-09T19:31:02.778Z,13.11
2024-05-09T19:33:32.752Z,13.04
2024-05-09T19:36:02.795Z,13.05
2024-05-09T19:38:32.783Z,13.09
2024-05-09T19:41:00.057Z,13.01
2024-05-09T19:43:32.274Z,13.00
2024-05-09T19:46:01.216Z,13.05
2024-05-09T19:48:31.371Z,13.05
2024-05-09T19:50:58.834Z,13.07
2024-05-09T19:53:31.573Z,12.97
2024-05-09T19:55:59.019Z,12.99
2024-05-09T19:58:28.947Z,12.97
2024-05-09T20:00:56.258Z,12.98
2024-05-09T20:03:26.152Z,13.04
2024-05-09T20:05:53.383Z,13.02
2024-05-09T20:08:23.242Z,13.01
2024-05-09T20:10:53.871Z,12.99
2024-05-09T20:13:24.050Z,13.00
2024-05-09T20:15:51.529Z,12.95
2024-05-09T20:18:21.351Z,12.95
2024-05-09T20:20:51.630Z,13.03
2024-05-09T20:23:23.129Z,12.99
2024-05-09T20:25:52.887Z,12.99
2024-05-09T20:28:22.799Z,12.94
2024-05-09T20:30:50.248Z,12.95
2024-05-09T20:33:21.550Z,12.97
2024-05-09T20:35:48.779Z,12.93
2024-05-09T20:38:18.614Z,12.90
2024-05-09T20:40:48.612Z,12.86
2024-05-09T20:43:23.184Z,12.77
2024-05-09T20:45:50.432Z,12.82
2024-05-09T20:48:20.648Z,12.82
2024-05-09T20:50:48.011Z,12.80
2024-05-09T20:53:18.977Z,12.81
2024-05-09T20:55:47.701Z,12.84
2024-05-09T20:58:20.723Z,12.76
2024-05-09T21:00:48.102Z,12.72
2024-05-09T21:03:18.564Z,12.69
2024-05-09T21:05:46.571Z,12.70
2024-05-09T21:08:17.174Z,12.69
2024-05-09T21:10:46.993Z,12.64
2024-05-09T21:13:17.007Z,12.65
2024-05-09T21:15:47.095Z,12.59
2024-05-09T21:18:17.013Z,12.49
2024-05-09T21:20:44.568Z,12.46
2024-05-09T21:23:14.409Z,12.51
2024-05-09T21:25:41.584Z,12.53
2024-05-09T21:28:11.517Z,12.49
2024-05-09T21:30:42.282Z,12.49
2024-05-09T21:33:17.145Z,12.49
2024-05-09T21:35:44.979Z,12.53
2024-05-09T21:38:16.345Z,12.54
2024-05-09T21:40:44.229Z,12.54
2024-05-09T21:43:17.688Z,12.53
2024-05-09T21:45:45.350Z,12.53
2024-05-09T21:48:18.600Z,12.52
2024-05-09T21:50:48.100Z,12.47
2024-05-09T21:53:18.988Z,12.49
2024-05-09T21:55:47.158Z,12.38
2024-05-09T21:58:17.681Z,12.35
2024-05-09T22:00:46.458Z,12.41
2024-05-09T22:03:19.500Z,12.40
2024-05-09T22:05:46.820Z,12.41
2024-05-09T22:08:16.874Z,12.35
2024-05-09T22:10:44.524Z,12.35
2024-05-09T22:13:19.289Z,12.35
2024-05-09T22:15:46.761Z,12.36
2024-05-09T22:18:19.493Z,12.36
2024-05-09T22:20:47.196Z,12.32
2024-05-09T22:23:20.255Z,12.18
2024-05-09T22:25:48.369Z,12.09
2024-05-09T22:28:18.609Z,12.03
2024-05-09T22:30:50.694Z,11.95
2024-05-09T22:33:23.489Z,11.96
2024-05-09T22:35:51.758Z,11.98
2024-05-09T22:38:22.950Z,11.96
2024-05-09T22:40:50.310Z,11.98
2024-05-09T22:43:25.736Z,11.97
2024-05-09T22:45:56.295Z,12.00
2024-05-09T22:52:18.451Z,12.04
2024-05-09T22:54:45.627Z,11.96
2024-05-09T22:57:15.404Z,11.99
2024-05-09T22:59:44.190Z,11.96
2024-05-09T23:02:18.190Z,11.91
2024-05-09T23:04:48.568Z,11.92
2024-05-09T23:07:21.175Z,11.87
2024-05-09T23:09:48.430Z,11.84
2024-05-09T23:12:18.686Z,11.85
2024-05-09T23:14:45.836Z,11.78
2024-05-09T23:17:19.581Z,11.81
2024-05-09T23:19:48.202Z,11.83
2024-05-09T23:22:20.885Z,11.82
2024-05-09T23:24:48.240Z,11.80
2024-05-09T23:27:20.922Z,11.83
2024-05-09T23:29:48.082Z,11.77
2024-05-09T23:32:18.488Z,11.72
2024-05-09T23:34:48.087Z,11.74
2024-05-09T23:37:20.902Z,11.67
2024-05-09T23:39:48.213Z,11.71
2024-05-09T23:42:17.960Z,11.69
2024-05-09T23:44:45.115Z,11.69
2024-05-09T23:47:17.968Z,11.65
2024-05-09T23:49:45.339Z,11.64
2024-05-09T23:52:15.325Z,11.68
2024-05-09T23:54:49.394Z,11.64
2024-05-09T23:57:19.471Z,11.62
2024-05-09T23:59:49.757Z,11.61
